Fernandina Beach, FL (32034)

12:11 PM EDT on August 28, 2014 (GMT -0400)
SW Fernandina Beach | Change Station
CLOSE
Current Station
Personal Weather Station
Location: Fernandina Beach, FL
Elevation: 18 ft
Nearby Weather Stations

Elev 18 ft 30.65 °N, 81.45 °W | Updated 4 seconds ago

Scattered Clouds
Scattered Clouds
85.3 °F
Feels Like 93 °F
N
3.4
Wind Variable Wind from East
Gusts 8.4 mph

Today
High -- | Low -- °F
--% Chance of Precip.
Yesterday
High -- | Low -- °F
Precip. -- in
7:00 AM 7:53 PM
Waxing Crescent, 9% visible
Pressure 30.03 in
Visibility 10.0 miles
Clouds Scattered Clouds 3000 ft
Heat Index 93 °F
Dew Point 74 °F
Humidity 68%
Rainfall 0.00 in
Snow Depth Not available.
UV 10 out of 12
Pollen 8.20 out of 12
Air Quality Not available.
Flu Activity Not available.
METAR KFHB 281555Z AUTO 10003KT 10SM SCT030 29/21 A3003 RMK AO1

More Conditions Fewer Conditions

Pressure 30.03 in
Visibility 10.0 miles
Clouds Scattered Clouds 3000 ft
Heat Index 93 °F
Dew Point 74 °F
Humidity 68%
Rainfall 0.00 in
Snow Depth Not available.
UV 10 out of 12
Pollen 8.20 out of 12
Air Quality Not available.
Flu Activity Not available.
METAR KFHB 281555Z AUTO 10003KT 10SM SCT030 29/21 A3003 RMK AO1

More Conditions Fewer Conditions

10-Day Weather Forecast

Almanac

Astronomy

Aug. 28, 2014 Rise Set
Actual Time 7:00 AM EDT 7:53 PM EDT
Civil Twilight 6:35 AM EDT 8:18 PM EDT
Nautical Twilight 6:06 AM EDT 8:47 PM EDT
Astronomical Twilight 5:36 AM EDT 9:17 PM EDT
Moon 9:36 AM EDT 9:33 PM EDT
Length of Visible Light 13h 42m
Length of Day
12h 53m
Tomorrow will be 1m 44s shorter.
Waxing Crescent, 9% of the Moon is Illuminated
Today
Waxing Crescent
Sep 2
First Quarter
Sep 8
Full
Sep 15
Last Quarter
Sep 24
New

Today's Extremes

State Highs State Lows

Community

WunderPhotos

Upload Photos

1,748,004 photos uploaded!

Nearby

Snow Depth

Station Depth Elevation
No new snow has been reported.

Earthquake Activity

City Distance Mag. Time & Date
No recent earthquake activity has been reported nearby.
Minimum magnitude displayed is 2.5.

Coastal Water Temperatures

Place Temperature
Fernandina Beach, FL 82.9 °F

Nearby Weather Stations